Memphis, TN (38115)

6:47 AM CST on February 09, 2016 (GMT -0600)
Cotton Plant Plantation | | Change Station
CLOSE
Current Station
Personal Weather Station
Location: Memphis, TN
Elevation: 344 ft
Nearby Weather Stations

Elev 344 ft 35.06 °N, 89.82 °W | Updated 2 seconds ago

Overcast
Overcast
32.2 °F
Feels Like 32 °F
N
0.4
Wind Variable Wind from North
Gusts 2.5 mph

Today
High -- | Low -- °F
--% Chance of Precip.
Yesterday
High -- | Low -- °F
Precip. -- in
Pressure 29.97 in
Visibility 10.0 miles
Clouds Overcast 4700 ft
Windchill 32 °F
Dew Point 12 °F
Humidity 43%
Rainfall 0.00 in
Snow Depth Not available.
6:51 AM 5:35 PM
New Moon, 1% visible
METAR KOLV 091215Z AUTO 29016G20KT 10SM OVC047 00/M08 A2997 RMK A01 P000
Pressure 29.97 in
Visibility 10.0 miles
Clouds Overcast 4700 ft
Windchill 32 °F
Dew Point 12 °F
Humidity 43%
Rainfall 0.00 in
Snow Depth Not available.
6:51 AM 5:35 PM
New Moon, 1% visible
METAR KOLV 091215Z AUTO 29016G20KT 10SM OVC047 00/M08 A2997 RMK A01 P000

10-Day Weather Forecast

Almanac

Astronomy

Feb. 09, 2016 Rise Set
Actual Time
Civil Twilight
Nautical Twilight
Astronomical Twilight
Moon
Length of Visible Light
Length of Day
Tomorrow will be .
, % of the Moon is Illuminated

Today's Extremes

State Highs State Lows

Community

WunderPhotos

Upload Photos

1,891,589 photos uploaded!

WunderBlog® & News

Nearby

Air Quality

  Air Quality AQ Index Pollutant
Not available.

Snow Depth

Station Depth Elevation

Earthquake Activity

City Distance Mag. Time & Date
Minimum magnitude displayed is 2.5.

Coastal Water Temperatures

Place Temperature

Stations

Nearby Weather Stations

Station Location Temp. Windchill Dew Point Humidity Wind Precip. Elev Updated Type
                   

Watches & Warnings

There are currently no watches in effect.